createdAt,value
2018-12-25T00:01:33.702Z,7.33
2018-12-25T00:04:14.278Z,6.65
2018-12-25T00:06:55.190Z,5.90
2018-12-25T00:09:36.509Z,8.18
2018-12-25T00:12:17.406Z,5.80
2018-12-25T00:14:58.294Z,5.37
2018-12-25T00:17:39.665Z,8.85
2018-12-25T00:20:20.222Z,5.60
2018-12-25T00:23:00.712Z,5.15
2018-12-25T00:25:41.522Z,5.50
2018-12-25T00:28:22.213Z,6.65
2018-12-25T00:31:03.194Z,4.28
2018-12-25T00:33:44.104Z,6.55
2018-12-25T00:36:25.549Z,7.65
2018-12-25T00:39:06.118Z,5.85
2018-12-25T00:41:46.509Z,4.12
2018-12-25T00:44:27.466Z,4.20
2018-12-25T00:47:08.602Z,6.10
2018-12-25T00:49:50.020Z,6.08
2018-12-25T00:52:30.985Z,4.83
2018-12-25T00:55:11.297Z,4.67
2018-12-25T00:57:52.089Z,4.58
2018-12-25T01:00:32.805Z,5.65
2018-12-25T01:03:14.272Z,3.90
2018-12-25T01:05:55.629Z,4.17
2018-12-25T01:08:36.482Z,6.55
2018-12-25T01:11:17.773Z,6.05
2018-12-25T01:13:58.578Z,4.97
2018-12-25T01:16:39.677Z,8.48
2018-12-25T01:19:23.473Z,6.12
2018-12-25T01:22:02.814Z,8.15
2018-12-25T01:24:43.830Z,5.37
2018-12-25T01:27:24.130Z,8.73
2018-12-25T01:30:04.882Z,7.08
2018-12-25T01:32:45.962Z,6.67
2018-12-25T01:35:26.842Z,5.53
2018-12-25T01:38:07.801Z,6.03
2018-12-25T01:40:48.394Z,5.37
2018-12-25T01:43:29.785Z,8.10
2018-12-25T01:46:10.301Z,8.00
2018-12-25T01:48:50.942Z,8.53
2018-12-25T01:51:31.854Z,6.12
2018-12-25T01:54:12.201Z,6.15
2018-12-25T01:56:52.734Z,4.58
2018-12-25T01:59:33.645Z,5.78
2018-12-25T02:02:14.462Z,6.70
2018-12-25T02:04:54.894Z,7.05
2018-12-25T02:07:35.672Z,7.03
2018-12-25T02:10:16.599Z,4.25
2018-12-25T02:12:57.991Z,6.35
2018-12-25T02:15:38.913Z,9.43
2018-12-25T02:18:19.659Z,8.45
2018-12-25T02:21:00.332Z,8.23
2018-12-25T02:23:41.065Z,5.97
2018-12-25T02:26:21.793Z,9.60
2018-12-25T02:29:02.120Z,7.83
2018-12-25T02:31:43.054Z,5.78
2018-12-25T02:34:23.902Z,9.65
2018-12-25T02:39:46.563Z,7.10
2018-12-25T02:42:27.537Z,5.83
2018-12-25T02:45:09.040Z,4.05
2018-12-25T02:47:50.183Z,6.55
2018-12-25T02:53:17.466Z,4.95
2018-12-25T02:55:58.169Z,5.03
2018-12-25T02:58:40.125Z,6.05
2018-12-25T03:04:04.965Z,4.60
2018-12-25T03:06:45.323Z,8.65
2018-12-25T03:09:26.141Z,4.60
2018-12-25T03:14:57.578Z,5.97
2018-12-25T03:20:27.098Z,4.80
2018-12-25T03:25:53.334Z,6.20
2018-12-25T03:28:34.520Z,6.92
2018-12-25T03:31:15.695Z,5.22
2018-12-25T03:36:40.629Z,4.70
2018-12-25T03:39:21.126Z,7.00
2018-12-25T03:44:51.488Z,5.50
2018-12-25T03:47:32.587Z,7.33
2018-12-25T03:50:15.190Z,8.03
2018-12-25T03:55:41.323Z,6.55
2018-12-25T04:01:06.362Z,6.10
2018-12-25T04:06:36.165Z,6.58
2018-12-25T04:12:06.075Z,7.15
2018-12-25T04:14:46.390Z,6.35
2018-12-25T04:17:28.323Z,7.20
2018-12-25T04:22:58.329Z,6.95
2018-12-25T04:28:26.022Z,7.22
2018-12-25T04:31:07.427Z,6.15
2018-12-25T04:36:32.679Z,6.25
2018-12-25T04:42:02.450Z,7.50
2018-12-25T04:47:33.605Z,5.72
2018-12-25T04:50:14.923Z,7.67
2018-12-25T04:52:58.805Z,7.42
2018-12-25T04:58:29.442Z,5.33
2018-12-25T05:03:58.513Z,7.35
2018-12-25T05:06:39.214Z,6.08
2018-12-25T05:12:09.846Z,5.03
2018-12-25T05:17:35.871Z,4.37
2018-12-25T05:23:06.129Z,5.28
2018-12-25T05:28:36.553Z,5.12
2018-12-25T05:34:02.804Z,5.05
2018-12-25T05:39:33.214Z,5.10
2018-12-25T05:42:15.178Z,6.65
2018-12-25T05:47:46.521Z,8.48
2018-12-25T05:53:11.074Z,7.42
2018-12-25T05:58:37.033Z,6.95
2018-12-25T06:04:05.345Z,7.47
2018-12-25T06:09:35.932Z,7.75
2018-12-25T06:12:17.197Z,7.22
2018-12-25T06:15:01.024Z,9.28
2018-12-25T06:17:42.623Z,7.15
2018-12-25T06:20:23.767Z,6.00
2018-12-25T06:25:49.218Z,7.08
2018-12-25T06:28:31.333Z,6.25
2018-12-25T06:33:57.475Z,5.53
2018-12-25T06:39:27.622Z,7.17
2018-12-25T06:44:59.793Z,6.67
2018-12-25T06:50:26.305Z,6.08
2018-12-25T06:55:51.581Z,6.50
2018-12-25T07:01:20.013Z,5.58
2018-12-25T07:04:00.385Z,7.75
2018-12-25T07:06:41.090Z,7.40
2018-12-25T07:09:22.224Z,5.90
2018-12-25T07:12:03.119Z,6.72
2018-12-25T07:14:44.177Z,6.10
2018-12-25T07:17:28.511Z,7.10
2018-12-25T07:20:09.700Z,8.03
2018-12-25T07:22:50.025Z,8.33
2018-12-25T07:25:31.117Z,6.95
2018-12-25T07:28:11.978Z,7.25
2018-12-25T07:30:53.262Z,6.83
2018-12-25T07:33:33.833Z,9.18
2018-12-25T07:36:14.758Z,7.45
2018-12-25T07:47:31.071Z,6.80
2018-12-25T07:55:57.638Z,7.53
2018-12-25T08:07:12.179Z,7.50
2018-12-25T08:18:26.018Z,7.47
2018-12-25T08:23:57.430Z,9.28
2018-12-25T08:29:27.938Z,9.03
2018-12-25T08:34:52.861Z,13.43
2018-12-25T08:37:34.247Z,9.80
2018-12-25T08:40:15.449Z,10.10
2018-12-25T08:42:56.478Z,9.85
2018-12-25T08:48:26.870Z,10.35
2018-12-25T08:51:07.766Z,9.73
2018-12-25T08:53:48.285Z,8.80
2018-12-25T08:56:28.773Z,11.05
2018-12-25T08:59:09.416Z,10.85
2018-12-25T09:01:50.212Z,12.90
2018-12-25T09:04:31.317Z,10.75
2018-12-25T09:07:11.977Z,12.93
2018-12-25T09:09:52.722Z,11.88
2018-12-25T09:12:33.312Z,13.05
2018-12-25T09:15:14.532Z,14.45
2018-12-25T09:17:55.353Z,9.50
2018-12-25T09:20:35.924Z,10.08
2018-12-25T09:23:16.249Z,9.98
2018-12-25T09:25:56.994Z,8.95
2018-12-25T09:28:37.738Z,9.95
2018-12-25T09:31:18.550Z,13.90
2018-12-25T09:33:59.069Z,10.93
2018-12-25T09:36:39.393Z,10.78
2018-12-25T09:39:20.173Z,10.05
2018-12-25T09:42:01.129Z,7.65
2018-12-25T09:44:42.213Z,10.48
2018-12-25T09:47:22.865Z,7.72
2018-12-25T09:50:03.505Z,9.03
2018-12-25T09:52:44.073Z,10.30
2018-12-25T09:55:24.686Z,10.45
2018-12-25T09:58:05.151Z,11.57
2018-12-25T10:00:46.221Z,9.68
2018-12-25T10:03:26.770Z,11.22
2018-12-25T10:06:07.736Z,9.38
2018-12-25T10:08:48.365Z,11.10
2018-12-25T10:11:29.489Z,10.20
2018-12-25T10:14:10.578Z,7.70
2018-12-25T10:16:51.210Z,9.15
2018-12-25T10:19:31.924Z,12.00
2018-12-25T10:22:12.510Z,12.15
2018-12-25T10:24:53.413Z,11.12
2018-12-25T10:27:34.612Z,8.83
2018-12-25T10:30:15.366Z,10.48
2018-12-25T10:32:55.641Z,11.10
2018-12-25T10:35:36.269Z,8.98
2018-12-25T10:38:16.985Z,10.95
2018-12-25T10:40:57.531Z,10.25
2018-12-25T10:43:38.395Z,9.60
2018-12-25T10:46:18.913Z,12.37
2018-12-25T10:48:59.797Z,7.67
2018-12-25T10:51:40.224Z,9.65
2018-12-25T10:54:21.181Z,8.65
2018-12-25T10:57:01.613Z,11.48
2018-12-25T10:59:42.709Z,8.05
2018-12-25T11:02:23.293Z,9.35
2018-12-25T11:05:03.930Z,8.70
2018-12-25T11:07:45.226Z,9.13
2018-12-25T11:10:25.833Z,10.95
2018-12-25T11:13:06.665Z,10.80
2018-12-25T11:15:47.774Z,11.05
2018-12-25T11:18:28.497Z,7.42
2018-12-25T11:21:09.338Z,10.05
2018-12-25T11:23:50.141Z,8.53
2018-12-25T11:29:20.249Z,8.48
2018-12-25T11:32:00.965Z,9.03
2018-12-25T11:34:41.833Z,11.50
2018-12-25T11:37:22.297Z,7.97
2018-12-25T11:40:03.291Z,8.15
2018-12-25T11:42:44.240Z,9.35
2018-12-25T11:45:24.874Z,9.55
2018-12-25T11:50:51.402Z,8.90
2018-12-25T11:56:20.683Z,8.43
2018-12-25T11:59:02.494Z,9.80
2018-12-25T12:01:46.023Z,11.38
2018-12-25T12:04:26.337Z,7.83
2018-12-25T12:07:06.989Z,9.58
2018-12-25T12:09:48.985Z,8.15
2018-12-25T12:15:15.467Z,9.73
2018-12-25T12:20:45.569Z,9.50
2018-12-25T12:26:11.602Z,8.00
2018-12-25T12:31:41.003Z,8.58
2018-12-25T12:37:06.437Z,9.65
2018-12-25T12:42:32.117Z,9.18
2018-12-25T12:47:58.342Z,10.03
2018-12-25T12:50:40.415Z,8.08
2018-12-25T12:56:11.869Z,7.75
2018-12-25T13:01:37.358Z,7.78
2018-12-25T13:07:07.997Z,8.35
2018-12-25T13:12:38.478Z,8.95
2018-12-25T13:18:06.762Z,9.65
2018-12-25T13:23:36.933Z,9.20
2018-12-25T13:29:02.266Z,9.98
2018-12-25T13:31:43.438Z,9.88
2018-12-25T13:37:09.073Z,9.15
2018-12-25T13:42:40.427Z,11.68
2018-12-25T13:48:07.003Z,10.10
2018-12-25T13:53:38.490Z,10.68
2018-12-25T13:59:09.521Z,11.28
2018-12-25T14:04:35.689Z,11.22
2018-12-25T14:10:05.838Z,10.90
2018-12-25T14:15:34.213Z,9.55
2018-12-25T14:21:04.203Z,10.95
2018-12-25T14:23:45.777Z,10.68
2018-12-25T14:29:16.873Z,12.37
2018-12-25T14:34:43.194Z,10.78
2018-12-25T14:40:14.610Z,12.98
2018-12-25T14:45:40.969Z,11.63
2018-12-25T14:51:10.289Z,13.13
2018-12-25T14:56:36.718Z,12.37
2018-12-25T15:02:08.005Z,11.88
2018-12-25T15:04:48.406Z,13.83
2018-12-25T15:10:19.261Z,15.13
2018-12-25T15:15:49.146Z,11.90
2018-12-25T15:18:30.089Z,13.83
2018-12-25T15:21:13.606Z,12.95
2018-12-25T15:26:43.416Z,14.28
2018-12-25T15:32:13.097Z,14.10
2018-12-25T15:34:53.370Z,15.32
2018-12-25T15:37:33.981Z,17.07
2018-12-25T15:42:58.661Z,19.42
2018-12-25T15:48:28.678Z,23.00
2018-12-25T15:51:09.080Z,22.02
2018-12-25T15:53:50.546Z,19.40
2018-12-25T15:56:31.713Z,19.85
2018-12-25T16:05:11.705Z,20.68
2018-12-25T16:07:52.860Z,19.95
2018-12-25T16:10:33.521Z,19.98
2018-12-25T16:13:14.265Z,21.15
2018-12-25T16:15:55.492Z,23.42
2018-12-25T16:18:36.493Z,19.23
2018-12-25T16:24:01.189Z,19.98
2018-12-25T16:26:42.125Z,20.00
2018-12-25T16:29:23.376Z,21.57
2018-12-25T16:32:03.875Z,19.55
2018-12-25T16:34:44.594Z,18.52
2018-12-25T16:37:25.269Z,21.75
2018-12-25T16:40:05.611Z,18.60
2018-12-25T16:42:46.606Z,17.87
2018-12-25T16:45:28.146Z,22.93
2018-12-25T16:48:09.375Z,26.35
2018-12-25T16:50:50.674Z,20.77
2018-12-25T16:56:17.117Z,24.37
2018-12-25T17:04:33.610Z,20.92
2018-12-25T17:07:14.549Z,20.40
2018-12-25T17:09:55.349Z,22.07
2018-12-25T17:12:36.636Z,20.32
2018-12-25T17:15:20.353Z,20.23
2018-12-25T17:18:00.929Z,21.95
2018-12-25T17:20:41.437Z,20.60
2018-12-25T17:23:10.645Z,21.25
2018-12-25T17:25:58.833Z,19.40
2018-12-25T17:28:46.745Z,20.37
2018-12-25T17:31:34.941Z,20.55
2018-12-25T17:34:23.064Z,22.50
2018-12-25T17:37:11.265Z,22.05
2018-12-25T17:39:59.397Z,20.55
2018-12-25T17:42:47.741Z,22.37
2018-12-25T17:48:28.994Z,19.50
2018-12-25T17:51:17.369Z,22.07
2018-12-25T17:54:10.679Z,18.45
2018-12-25T17:56:55.430Z,18.05
2018-12-25T18:02:18.053Z,21.93
2018-12-25T18:05:11.799Z,19.80
2018-12-25T18:07:55.770Z,20.23
2018-12-25T18:10:43.914Z,18.65
2018-12-25T18:13:32.073Z,18.95
2018-12-25T18:16:20.350Z,23.10
2018-12-25T18:19:08.705Z,19.73
2018-12-25T18:21:57.401Z,18.70
2018-12-25T18:27:45.117Z,19.87
2018-12-25T18:30:25.550Z,22.22
2018-12-25T18:33:06.313Z,21.07
2018-12-25T18:35:47.095Z,27.52
2018-12-25T18:38:26.514Z,20.43
2018-12-25T18:41:14.684Z,19.25
2018-12-25T18:50:04.177Z,22.80
2018-12-25T18:52:52.072Z,22.70
2018-12-25T18:55:40.344Z,20.50
2018-12-25T18:58:29.799Z,20.02
2018-12-25T19:01:17.913Z,23.98
2018-12-25T19:04:06.057Z,23.42
2018-12-25T19:06:54.184Z,19.10
2018-12-25T19:09:42.325Z,19.23
2018-12-25T19:12:30.532Z,25.30
2018-12-25T19:15:19.329Z,19.32
2018-12-25T19:18:08.961Z,20.48
2018-12-25T19:20:56.849Z,20.55
2018-12-25T19:23:47.777Z,17.92
2018-12-25T19:26:35.926Z,23.07
2018-12-25T19:29:16.860Z,20.43
2018-12-25T19:31:57.670Z,19.60
2018-12-25T19:34:38.295Z,21.25
2018-12-25T19:37:18.901Z,18.92
2018-12-25T19:39:59.257Z,20.72
2018-12-25T19:42:40.157Z,24.27
2018-12-25T19:45:21.229Z,22.27
2018-12-25T19:48:02.466Z,22.22
2018-12-25T19:50:43.198Z,20.25
2018-12-25T19:53:24.165Z,21.37
2018-12-25T19:56:05.202Z,22.48
2018-12-25T19:58:46.717Z,17.90
2018-12-25T20:01:28.312Z,22.87
2018-12-25T20:04:09.029Z,22.27
2018-12-25T20:06:49.746Z,19.85
2018-12-25T20:09:30.350Z,20.52
2018-12-25T20:12:11.473Z,20.92
2018-12-25T20:14:52.212Z,22.02
2018-12-25T20:17:33.037Z,18.40
2018-12-25T20:20:14.278Z,16.25
2018-12-25T20:22:54.794Z,19.02
2018-12-25T20:25:36.680Z,18.92
2018-12-25T20:28:17.577Z,17.20
2018-12-25T20:30:58.170Z,18.77
2018-12-25T20:36:23.790Z,17.95
2018-12-25T20:39:04.712Z,14.70
2018-12-25T20:44:30.294Z,16.40
2018-12-25T20:47:11.106Z,17.25
2018-12-25T20:49:53.545Z,18.10
2018-12-25T20:52:55.298Z,15.83
2018-12-25T20:56:02.514Z,19.70
2018-12-25T20:59:09.938Z,16.42
2018-12-25T21:02:05.202Z,15.83
2018-12-25T21:05:00.721Z,15.10
2018-12-25T21:08:07.960Z,17.65
2018-12-25T21:11:15.163Z,20.80
2018-12-25T21:14:22.349Z,16.00
2018-12-25T21:17:29.553Z,17.57
2018-12-25T21:20:36.741Z,15.05
2018-12-25T21:23:44.157Z,17.17
2018-12-25T21:26:51.581Z,15.18
2018-12-25T21:32:22.261Z,16.55
2018-12-25T21:37:52.633Z,15.72
2018-12-25T21:40:34.554Z,18.55
2018-12-25T21:46:04.749Z,17.10
2018-12-25T21:48:33.753Z,22.15
2018-12-25T21:51:21.899Z,19.87
2018-12-25T21:54:09.780Z,19.45
2018-12-25T21:56:58.128Z,18.73
2018-12-25T21:59:46.230Z,18.23
2018-12-25T22:02:34.129Z,16.07
2018-12-25T22:05:22.480Z,15.83
2018-12-25T22:08:10.594Z,17.85
2018-12-25T22:10:58.701Z,24.40
2018-12-25T22:13:46.905Z,24.77
2018-12-25T22:16:35.097Z,26.97
2018-12-25T22:19:23.209Z,21.20
2018-12-25T22:22:11.337Z,19.25
2018-12-25T22:24:59.575Z,21.82
2018-12-25T22:27:47.689Z,22.60
2018-12-25T22:30:35.790Z,25.80
2018-12-25T22:33:23.681Z,25.12
2018-12-25T22:36:12.055Z,23.30
2018-12-25T22:38:59.983Z,22.65
2018-12-25T22:41:48.080Z,22.85
2018-12-25T22:44:35.974Z,22.50
2018-12-25T22:47:24.092Z,20.08
2018-12-25T22:50:12.025Z,20.70
2018-12-25T22:53:00.649Z,18.05
2018-12-25T22:55:48.539Z,19.95
2018-12-25T22:58:36.885Z,22.60
2018-12-25T23:01:24.769Z,18.32
2018-12-25T23:04:12.885Z,18.32
2018-12-25T23:07:00.988Z,20.27
2018-12-25T23:09:49.116Z,20.30
2018-12-25T23:15:44.026Z,25.12
2018-12-25T23:18:31.913Z,22.82
2018-12-25T23:21:19.793Z,22.60
2018-12-25T23:24:07.958Z,21.52
2018-12-25T23:26:56.068Z,21.23
2018-12-25T23:29:37.133Z,19.65
2018-12-25T23:35:03.530Z,20.52
2018-12-25T23:37:44.741Z,19.73
2018-12-25T23:40:25.492Z,19.42
2018-12-25T23:45:51.897Z,22.87
2018-12-25T23:48:33.534Z,20.17
2018-12-25T23:51:02.789Z,19.67
2018-12-25T23:53:50.690Z,16.82
2018-12-25T23:56:38.769Z,17.45
2018-12-25T23:59:26.673Z,19.07
